Rochester International Airport
KRST : now visible

Airfield :











YOU CAN JOIN US ON...

 
LOGIN :

Register | Disclaimer

   EN    FR    IT 

 









Legend :    VFR   Marginal VFR   IFR   Intensive IFR   Very Intensive IFR
Visi :
Ceiling :
>= 8 km
>= 3000ft
5 to 8 km
1000 to 3000 ft
1500m to 5 km
500 to 1000 ft
800 to 1500m
200 to 500 ft
< 800m
< 200 ft
Symbols :   Thunderstorms  Fog  Heavy snow  Heavy precipitations  Wind > 20 kt







- Airport Elevation : 1317 ft
- IATA code : RST


KRST - Rochester International

CURRENT METAR :
  • 160554Z AUTO 15006KT 10SM CLR 16/14 A3005 RMK AO2 SLP172 T01610144 10244 20156 402890156 50002 $

EXPIRED METARs :
  • 160454Z AUTO 17005KT 10SM CLR 16/14 A3006 RMK AO2 SLP175 T01560144 $
  • 160354Z 17005KT 10SM CLR 17/16 A3006 RMK AO2 SLP174 T01670156 $

TAF KRST
Valid from the 16 at 06:00 until the 17 at 06:00 UTC


160520Z 1606/1706 VRB03KT 6SM BR SKC
FM161000 VRB04KT 4SM BR SCT009
FM161300 VRB05KT 6SM BR FEW015
FM161700 16010G19KT P6SM FEW250
FM170000 16006KT P6SM BKN250
No reported NOTAMs for that airfield.



MET'MAP, your aeronautical weather chart ! - Copyright ORBIFLY December 2007 - Disclaimer

ORBIFLY MET'MAP TEAM :

Programming & Development : Alexandra Zaïnal
Concept & Development : Baudouin d'Aumeries
Co-Development & Prog : Marc-Olivier Méhu
Technical & hardware support : Manuel Goepfert

Contact : metmap@orbifly.com




SOURCES & CREDITS :

   NOAA       Earth
Advisory